sensor_id;sensor_type;location;lat;lon;timestamp;P1;durP1;ratioP1;P2;durP2;ratioP2
29940;SDS011;16801;53.562;10.038;2023-04-15T00:02:50;2.80;;;2.40;;
29940;SDS011;16801;53.562;10.038;2023-04-15T00:06:13;2.37;;;1.47;;
29940;SDS011;16801;53.562;10.038;2023-04-15T00:09:34;2.10;;;1.97;;
29940;SDS011;16801;53.562;10.038;2023-04-15T00:12:56;2.60;;;2.40;;
29940;SDS011;16801;53.562;10.038;2023-04-15T00:16:17;2.30;;;2.20;;
29940;SDS011;16801;53.562;10.038;2023-04-15T00:19:39;2.33;;;2.23;;
29940;SDS011;16801;53.562;10.038;2023-04-15T00:23:01;3.00;;;2.40;;
29940;SDS011;16801;53.562;10.038;2023-04-15T00:26:23;2.23;;;2.03;;
29940;SDS011;16801;53.562;10.038;2023-04-15T00:29:44;2.23;;;2.03;;
29940;SDS011;16801;53.562;10.038;2023-04-15T00:33:05;3.00;;;2.73;;
29940;SDS011;16801;53.562;10.038;2023-04-15T00:36:28;2.30;;;2.13;;
29940;SDS011;16801;53.562;10.038;2023-04-15T00:39:50;2.37;;;2.17;;
29940;SDS011;16801;53.562;10.038;2023-04-15T00:43:10;1.83;;;1.73;;
29940;SDS011;16801;53.562;10.038;2023-04-15T00:46:32;1.80;;;1.70;;
29940;SDS011;16801;53.562;10.038;2023-04-15T00:49:58;2.63;;;2.43;;
29940;SDS011;16801;53.562;10.038;2023-04-15T00:53:20;3.80;;;2.67;;
29940;SDS011;16801;53.562;10.038;2023-04-15T00:56:41;2.03;;;1.83;;
29940;SDS011;16801;53.562;10.038;2023-04-15T01:00:02;2.33;;;2.23;;
29940;SDS011;16801;53.562;10.038;2023-04-15T01:03:24;2.20;;;2.10;;
29940;SDS011;16801;53.562;10.038;2023-04-15T01:06:45;1.70;;;1.60;;
29940;SDS011;16801;53.562;10.038;2023-04-15T01:10:08;1.73;;;1.63;;
29940;SDS011;16801;53.562;10.038;2023-04-15T01:13:29;2.63;;;2.20;;
29940;SDS011;16801;53.562;10.038;2023-04-15T01:16:53;2.03;;;1.73;;
29940;SDS011;16801;53.562;10.038;2023-04-15T01:20:15;2.17;;;2.07;;
29940;SDS011;16801;53.562;10.038;2023-04-15T01:23:37;2.30;;;1.90;;
29940;SDS011;16801;53.562;10.038;2023-04-15T01:27:01;2.17;;;1.73;;
29940;SDS011;16801;53.562;10.038;2023-04-15T01:30:22;2.90;;;2.17;;
29940;SDS011;16801;53.562;10.038;2023-04-15T01:33:44;1.73;;;1.63;;
29940;SDS011;16801;53.562;10.038;2023-04-15T01:37:07;2.73;;;2.53;;
29940;SDS011;16801;53.562;10.038;2023-04-15T01:40:28;1.80;;;1.70;;
29940;SDS011;16801;53.562;10.038;2023-04-15T01:43:52;4.13;;;2.27;;
29940;SDS011;16801;53.562;10.038;2023-04-15T01:47:13;2.23;;;2.00;;
29940;SDS011;16801;53.562;10.038;2023-04-15T01:50:34;2.30;;;2.13;;
29940;SDS011;16801;53.562;10.038;2023-04-15T01:53:56;2.47;;;2.27;;
29940;SDS011;16801;53.562;10.038;2023-04-15T01:57:17;2.73;;;2.53;;
29940;SDS011;16801;53.562;10.038;2023-04-15T02:00:39;2.40;;;2.20;;
29940;SDS011;16801;53.562;10.038;2023-04-15T02:04:01;2.63;;;2.43;;
29940;SDS011;16801;53.562;10.038;2023-04-15T02:07:24;2.17;;;1.97;;
29940;SDS011;16801;53.562;10.038;2023-04-15T02:10:47;1.70;;;1.60;;
29940;SDS011;16801;53.562;10.038;2023-04-15T02:14:08;2.77;;;2.33;;
29940;SDS011;16801;53.562;10.038;2023-04-15T02:17:32;4.50;;;2.80;;
29940;SDS011;16801;53.562;10.038;2023-04-15T02:20:54;2.67;;;2.43;;
29940;SDS011;16801;53.562;10.038;2023-04-15T02:24:16;2.53;;;2.33;;
29940;SDS011;16801;53.562;10.038;2023-04-15T02:27:37;7.90;;;2.30;;
29940;SDS011;16801;53.562;10.038;2023-04-15T02:30:57;3.03;;;2.73;;
29940;SDS011;16801;53.562;10.038;2023-04-15T02:34:21;2.20;;;1.97;;
29940;SDS011;16801;53.562;10.038;2023-04-15T02:37:42;3.20;;;2.90;;
29940;SDS011;16801;53.562;10.038;2023-04-15T02:41:05;3.17;;;2.77;;
29940;SDS011;16801;53.562;10.038;2023-04-15T02:44:27;3.00;;;2.80;;
29940;SDS011;16801;53.562;10.038;2023-04-15T02:47:52;3.43;;;2.93;;
29940;SDS011;16801;53.562;10.038;2023-04-15T02:51:15;3.57;;;2.87;;
29940;SDS011;16801;53.562;10.038;2023-04-15T02:54:38;4.10;;;3.57;;
29940;SDS011;16801;53.562;10.038;2023-04-15T02:57:59;3.43;;;3.13;;
29940;SDS011;16801;53.562;10.038;2023-04-15T03:01:20;3.37;;;3.07;;
29940;SDS011;16801;53.562;10.038;2023-04-15T03:04:41;4.47;;;4.07;;
29940;SDS011;16801;53.562;10.038;2023-04-15T03:08:02;4.53;;;4.13;;
29940;SDS011;16801;53.562;10.038;2023-04-15T03:11:23;4.33;;;3.93;;
29940;SDS011;16801;53.562;10.038;2023-04-15T03:14:45;3.47;;;3.17;;
29940;SDS011;16801;53.562;10.038;2023-04-15T03:18:06;4.47;;;3.97;;
29940;SDS011;16801;53.562;10.038;2023-04-15T03:21:27;5.33;;;4.40;;
29940;SDS011;16801;53.562;10.038;2023-04-15T03:24:49;5.07;;;4.40;;
29940;SDS011;16801;53.562;10.038;2023-04-15T03:28:10;7.03;;;4.50;;
29940;SDS011;16801;53.562;10.038;2023-04-15T03:31:31;4.23;;;3.83;;
29940;SDS011;16801;53.562;10.038;2023-04-15T03:34:52;6.97;;;5.57;;
29940;SDS011;16801;53.562;10.038;2023-04-15T03:38:13;5.20;;;4.57;;
29940;SDS011;16801;53.562;10.038;2023-04-15T03:41:35;5.43;;;4.00;;
29940;SDS011;16801;53.562;10.038;2023-04-15T03:44:56;5.10;;;4.50;;
29940;SDS011;16801;53.562;10.038;2023-04-15T03:48:16;6.63;;;5.17;;
29940;SDS011;16801;53.562;10.038;2023-04-15T03:51:37;6.87;;;5.17;;
29940;SDS011;16801;53.562;10.038;2023-04-15T03:54:58;5.73;;;4.17;;
29940;SDS011;16801;53.562;10.038;2023-04-15T03:58:21;5.80;;;5.20;;
29940;SDS011;16801;53.562;10.038;2023-04-15T04:01:42;4.97;;;4.37;;
29940;SDS011;16801;53.562;10.038;2023-04-15T04:05:03;6.10;;;5.17;;
29940;SDS011;16801;53.562;10.038;2023-04-15T04:08:24;7.13;;;5.40;;
29940;SDS011;16801;53.562;10.038;2023-04-15T04:11:46;6.97;;;5.00;;
29940;SDS011;16801;53.562;10.038;2023-04-15T04:15:08;5.97;;;4.33;;
29940;SDS011;16801;53.562;10.038;2023-04-15T04:18:30;5.93;;;4.13;;
29940;SDS011;16801;53.562;10.038;2023-04-15T04:21:52;5.53;;;4.33;;
29940;SDS011;16801;53.562;10.038;2023-04-15T04:25:13;8.00;;;5.10;;
29940;SDS011;16801;53.562;10.038;2023-04-15T04:28:34;4.37;;;3.97;;
29940;SDS011;16801;53.562;10.038;2023-04-15T04:31:56;4.77;;;4.43;;
29940;SDS011;16801;53.562;10.038;2023-04-15T04:35:17;5.83;;;5.23;;
29940;SDS011;16801;53.562;10.038;2023-04-15T04:38:37;5.57;;;4.70;;
29940;SDS011;16801;53.562;10.038;2023-04-15T04:41:58;6.10;;;5.50;;
29940;SDS011;16801;53.562;10.038;2023-04-15T04:45:19;7.63;;;5.73;;
29940;SDS011;16801;53.562;10.038;2023-04-15T04:48:41;7.40;;;6.40;;
29940;SDS011;16801;53.562;10.038;2023-04-15T04:52:02;8.97;;;6.47;;
29940;SDS011;16801;53.562;10.038;2023-04-15T04:55:23;6.93;;;6.23;;
29940;SDS011;16801;53.562;10.038;2023-04-15T04:58:44;11.73;;;6.33;;
29940;SDS011;16801;53.562;10.038;2023-04-15T05:02:04;9.07;;;6.80;;
29940;SDS011;16801;53.562;10.038;2023-04-15T05:05:27;8.13;;;7.37;;
29940;SDS011;16801;53.562;10.038;2023-04-15T05:08:48;9.00;;;8.10;;
29940;SDS011;16801;53.562;10.038;2023-04-15T05:12:09;10.63;;;9.03;;
29940;SDS011;16801;53.562;10.038;2023-04-15T05:15:33;8.30;;;7.50;;
29940;SDS011;16801;53.562;10.038;2023-04-15T05:18:55;12.40;;;9.30;;
29940;SDS011;16801;53.562;10.038;2023-04-15T05:22:17;11.37;;;9.63;;
29940;SDS011;16801;53.562;10.038;2023-04-15T05:25:38;11.33;;;8.77;;
29940;SDS011;16801;53.562;10.038;2023-04-15T05:28:58;12.90;;;8.10;;
29940;SDS011;16801;53.562;10.038;2023-04-15T05:32:19;10.13;;;9.10;;
29940;SDS011;16801;53.562;10.038;2023-04-15T05:35:40;12.23;;;9.60;;
29940;SDS011;16801;53.562;10.038;2023-04-15T05:39:02;11.00;;;7.37;;
29940;SDS011;16801;53.562;10.038;2023-04-15T05:42:23;10.80;;;9.67;;
29940;SDS011;16801;53.562;10.038;2023-04-15T05:45:44;10.17;;;9.17;;
29940;SDS011;16801;53.562;10.038;2023-04-15T05:49:05;7.70;;;6.50;;
29940;SDS011;16801;53.562;10.038;2023-04-15T05:52:26;11.97;;;9.20;;
29940;SDS011;16801;53.562;10.038;2023-04-15T05:55:48;11.07;;;9.43;;
29940;SDS011;16801;53.562;10.038;2023-04-15T05:59:09;12.57;;;9.80;;
29940;SDS011;16801;53.562;10.038;2023-04-15T06:02:29;9.40;;;8.40;;
29940;SDS011;16801;53.562;10.038;2023-04-15T06:05:50;10.37;;;9.00;;
29940;SDS011;16801;53.562;10.038;2023-04-15T06:09:11;11.10;;;9.17;;
29940;SDS011;16801;53.562;10.038;2023-04-15T06:12:33;9.83;;;8.70;;
29940;SDS011;16801;53.562;10.038;2023-04-15T06:15:54;10.47;;;8.73;;
29940;SDS011;16801;53.562;10.038;2023-04-15T06:19:15;10.20;;;8.17;;
29940;SDS011;16801;53.562;10.038;2023-04-15T06:22:37;10.40;;;8.10;;
29940;SDS011;16801;53.562;10.038;2023-04-15T06:25:58;10.20;;;7.70;;
29940;SDS011;16801;53.562;10.038;2023-04-15T06:29:21;12.33;;;10.47;;
29940;SDS011;16801;53.562;10.038;2023-04-15T06:32:41;12.70;;;8.97;;
29940;SDS011;16801;53.562;10.038;2023-04-15T06:36:02;10.93;;;9.53;;
29940;SDS011;16801;53.562;10.038;2023-04-15T06:39:23;13.53;;;10.27;;
29940;SDS011;16801;53.562;10.038;2023-04-15T06:42:44;11.30;;;10.10;;
29940;SDS011;16801;53.562;10.038;2023-04-15T06:46:06;11.17;;;9.80;;
29940;SDS011;16801;53.562;10.038;2023-04-15T06:49:27;15.93;;;10.53;;
29940;SDS011;16801;53.562;10.038;2023-04-15T06:52:48;12.90;;;10.47;;
29940;SDS011;16801;53.562;10.038;2023-04-15T06:56:09;14.23;;;12.83;;
29940;SDS011;16801;53.562;10.038;2023-04-15T06:59:30;11.27;;;9.13;;
29940;SDS011;16801;53.562;10.038;2023-04-15T07:02:52;11.60;;;9.37;;
29940;SDS011;16801;53.562;10.038;2023-04-15T07:06:13;12.87;;;9.60;;
29940;SDS011;16801;53.562;10.038;2023-04-15T07:09:34;17.17;;;11.40;;
29940;SDS011;16801;53.562;10.038;2023-04-15T07:12:55;14.47;;;11.30;;
29940;SDS011;16801;53.562;10.038;2023-04-15T07:16:16;17.03;;;13.63;;
29940;SDS011;16801;53.562;10.038;2023-04-15T07:19:39;12.77;;;9.70;;
29940;SDS011;16801;53.562;10.038;2023-04-15T07:23:00;15.07;;;12.20;;
29940;SDS011;16801;53.562;10.038;2023-04-15T07:26:21;13.93;;;12.47;;
29940;SDS011;16801;53.562;10.038;2023-04-15T07:29:42;11.33;;;9.13;;
29940;SDS011;16801;53.562;10.038;2023-04-15T07:33:02;12.90;;;11.17;;
29940;SDS011;16801;53.562;10.038;2023-04-15T07:36:25;16.70;;;11.57;;
29940;SDS011;16801;53.562;10.038;2023-04-15T07:39:47;13.80;;;11.83;;
29940;SDS011;16801;53.562;10.038;2023-04-15T07:43:08;12.43;;;10.10;;
29940;SDS011;16801;53.562;10.038;2023-04-15T07:46:29;13.77;;;10.50;;
29940;SDS011;16801;53.562;10.038;2023-04-15T07:49:50;13.77;;;11.20;;
29940;SDS011;16801;53.562;10.038;2023-04-15T07:53:12;17.90;;;12.67;;
29940;SDS011;16801;53.562;10.038;2023-04-15T07:56:34;16.10;;;12.63;;
29940;SDS011;16801;53.562;10.038;2023-04-15T07:59:54;15.90;;;12.33;;
29940;SDS011;16801;53.562;10.038;2023-04-15T08:03:15;15.33;;;12.40;;
29940;SDS011;16801;53.562;10.038;2023-04-15T08:06:36;13.40;;;11.63;;
29940;SDS011;16801;53.562;10.038;2023-04-15T08:09:59;16.67;;;12.90;;
29940;SDS011;16801;53.562;10.038;2023-04-15T08:13:20;14.37;;;11.97;;
29940;SDS011;16801;53.562;10.038;2023-04-15T08:16:41;15.17;;;12.67;;
29940;SDS011;16801;53.562;10.038;2023-04-15T08:20:02;16.63;;;12.87;;
29940;SDS011;16801;53.562;10.038;2023-04-15T08:23:25;15.00;;;12.30;;
29940;SDS011;16801;53.562;10.038;2023-04-15T08:26:47;12.10;;;8.97;;
29940;SDS011;16801;53.562;10.038;2023-04-15T08:30:08;12.33;;;10.43;;
29940;SDS011;16801;53.562;10.038;2023-04-15T08:33:29;16.87;;;10.83;;
29940;SDS011;16801;53.562;10.038;2023-04-15T08:36:50;15.00;;;10.47;;
29940;SDS011;16801;53.562;10.038;2023-04-15T08:40:11;15.40;;;11.10;;
29940;SDS011;16801;53.562;10.038;2023-04-15T08:43:34;16.57;;;13.87;;
29940;SDS011;16801;53.562;10.038;2023-04-15T08:47:01;16.03;;;13.37;;
29940;SDS011;16801;53.562;10.038;2023-04-15T08:50:24;18.23;;;12.77;;
29940;SDS011;16801;53.562;10.038;2023-04-15T08:53:48;13.40;;;11.93;;
29940;SDS011;16801;53.562;10.038;2023-04-15T08:57:10;14.67;;;11.60;;
29940;SDS011;16801;53.562;10.038;2023-04-15T09:00:33;17.33;;;13.43;;
29940;SDS011;16801;53.562;10.038;2023-04-15T09:03:54;19.47;;;12.43;;
29940;SDS011;16801;53.562;10.038;2023-04-15T09:07:16;16.83;;;14.57;;
29940;SDS011;16801;53.562;10.038;2023-04-15T09:10:37;18.40;;;12.50;;
29940;SDS011;16801;53.562;10.038;2023-04-15T09:13:58;14.80;;;12.13;;
29940;SDS011;16801;53.562;10.038;2023-04-15T09:17:20;15.37;;;13.27;;
29940;SDS011;16801;53.562;10.038;2023-04-15T09:20:43;18.30;;;13.27;;
29940;SDS011;16801;53.562;10.038;2023-04-15T09:24:03;16.47;;;12.93;;
29940;SDS011;16801;53.562;10.038;2023-04-15T09:27:25;17.53;;;14.13;;
29940;SDS011;16801;53.562;10.038;2023-04-15T09:30:45;17.53;;;15.57;;
29940;SDS011;16801;53.562;10.038;2023-04-15T09:34:12;14.50;;;11.83;;
29940;SDS011;16801;53.562;10.038;2023-04-15T09:37:35;18.63;;;12.90;;
29940;SDS011;16801;53.562;10.038;2023-04-15T09:40:56;18.80;;;13.47;;
29940;SDS011;16801;53.562;10.038;2023-04-15T09:44:21;20.43;;;14.53;;
29940;SDS011;16801;53.562;10.038;2023-04-15T09:47:42;16.30;;;13.10;;
29940;SDS011;16801;53.562;10.038;2023-04-15T09:51:05;17.53;;;13.17;;
29940;SDS011;16801;53.562;10.038;2023-04-15T09:54:31;16.17;;;12.83;;
29940;SDS011;16801;53.562;10.038;2023-04-15T09:57:53;14.30;;;11.33;;
29940;SDS011;16801;53.562;10.038;2023-04-15T10:01:14;13.43;;;12.00;;
29940;SDS011;16801;53.562;10.038;2023-04-15T10:04:36;18.60;;;14.13;;
29940;SDS011;16801;53.562;10.038;2023-04-15T10:08:01;12.87;;;11.33;;
29940;SDS011;16801;53.562;10.038;2023-04-15T10:11:22;17.63;;;13.67;;
29940;SDS011;16801;53.562;10.038;2023-04-15T10:14:44;16.57;;;12.57;;
29940;SDS011;16801;53.562;10.038;2023-04-15T10:18:08;17.80;;;12.17;;
29940;SDS011;16801;53.562;10.038;2023-04-15T10:21:30;15.30;;;12.10;;
29940;SDS011;16801;53.562;10.038;2023-04-15T10:24:53;11.47;;;10.03;;
29940;SDS011;16801;53.562;10.038;2023-04-15T10:28:16;11.57;;;9.87;;
29940;SDS011;16801;53.562;10.038;2023-04-15T10:31:37;16.40;;;11.60;;
29940;SDS011;16801;53.562;10.038;2023-04-15T10:34:59;15.10;;;10.63;;
29940;SDS011;16801;53.562;10.038;2023-04-15T10:38:31;13.03;;;9.63;;
29940;SDS011;16801;53.562;10.038;2023-04-15T10:42:06;12.23;;;10.10;;
29940;SDS011;16801;53.562;10.038;2023-04-15T10:45:27;14.90;;;10.50;;
29940;SDS011;16801;53.562;10.038;2023-04-15T10:48:52;9.07;;;8.23;;
29940;SDS011;16801;53.562;10.038;2023-04-15T10:52:14;10.03;;;9.03;;
29940;SDS011;16801;53.562;10.038;2023-04-15T10:55:36;7.97;;;6.63;;
29940;SDS011;16801;53.562;10.038;2023-04-15T10:58:59;8.17;;;6.83;;
29940;SDS011;16801;53.562;10.038;2023-04-15T11:02:20;9.07;;;6.90;;
29940;SDS011;16801;53.562;10.038;2023-04-15T11:05:47;7.30;;;6.47;;
29940;SDS011;16801;53.562;10.038;2023-04-15T11:09:14;11.40;;;7.50;;
29940;SDS011;16801;53.562;10.038;2023-04-15T11:12:51;7.07;;;6.43;;
29940;SDS011;16801;53.562;10.038;2023-04-15T11:16:14;6.83;;;4.93;;
29940;SDS011;16801;53.562;10.038;2023-04-15T11:19:35;6.27;;;5.67;;
29940;SDS011;16801;53.562;10.038;2023-04-15T11:22:57;5.27;;;4.73;;
29940;SDS011;16801;53.562;10.038;2023-04-15T11:26:18;11.53;;;7.43;;
29940;SDS011;16801;53.562;10.038;2023-04-15T11:29:39;7.20;;;6.17;;
29940;SDS011;16801;53.562;10.038;2023-04-15T11:33:02;6.87;;;6.17;;
29940;SDS011;16801;53.562;10.038;2023-04-15T11:36:24;5.67;;;5.13;;
29940;SDS011;16801;53.562;10.038;2023-04-15T11:39:46;7.43;;;6.73;;
29940;SDS011;16801;53.562;10.038;2023-04-15T11:43:09;7.00;;;5.60;;
29940;SDS011;16801;53.562;10.038;2023-04-15T11:46:31;6.93;;;6.23;;
29940;SDS011;16801;53.562;10.038;2023-04-15T11:49:53;6.93;;;6.27;;
29940;SDS011;16801;53.562;10.038;2023-04-15T11:53:14;8.17;;;6.47;;
29940;SDS011;16801;53.562;10.038;2023-04-15T11:56:35;5.77;;;5.20;;
29940;SDS011;16801;53.562;10.038;2023-04-15T11:59:56;7.03;;;6.33;;
29940;SDS011;16801;53.562;10.038;2023-04-15T12:03:18;7.83;;;7.13;;
29940;SDS011;16801;53.562;10.038;2023-04-15T12:06:43;7.57;;;5.67;;
29940;SDS011;16801;53.562;10.038;2023-04-15T12:10:05;6.40;;;5.67;;
29940;SDS011;16801;53.562;10.038;2023-04-15T12:13:26;7.17;;;5.33;;
29940;SDS011;16801;53.562;10.038;2023-04-15T12:16:48;7.33;;;6.60;;
29940;SDS011;16801;53.562;10.038;2023-04-15T12:20:10;5.83;;;4.53;;
29940;SDS011;16801;53.562;10.038;2023-04-15T12:23:32;7.37;;;6.10;;
29940;SDS011;16801;53.562;10.038;2023-04-15T12:26:57;5.53;;;4.67;;
29940;SDS011;16801;53.562;10.038;2023-04-15T12:30:22;7.20;;;5.30;;
29940;SDS011;16801;53.562;10.038;2023-04-15T12:33:43;9.73;;;5.73;;
29940;SDS011;16801;53.562;10.038;2023-04-15T12:37:09;6.23;;;5.63;;
29940;SDS011;16801;53.562;10.038;2023-04-15T12:40:33;6.63;;;5.60;;
29940;SDS011;16801;53.562;10.038;2023-04-15T12:43:54;5.57;;;5.07;;
29940;SDS011;16801;53.562;10.038;2023-04-15T12:47:15;7.00;;;5.33;;
29940;SDS011;16801;53.562;10.038;2023-04-15T12:50:36;6.70;;;6.00;;
29940;SDS011;16801;53.562;10.038;2023-04-15T12:53:57;5.67;;;5.17;;
29940;SDS011;16801;53.562;10.038;2023-04-15T12:57:19;7.43;;;6.83;;
29940;SDS011;16801;53.562;10.038;2023-04-15T13:00:40;4.63;;;4.23;;
29940;SDS011;16801;53.562;10.038;2023-04-15T13:04:01;7.60;;;6.77;;
29940;SDS011;16801;53.562;10.038;2023-04-15T13:07:22;6.93;;;6.23;;
29940;SDS011;16801;53.562;10.038;2023-04-15T13:10:43;7.57;;;5.43;;
29940;SDS011;16801;53.562;10.038;2023-04-15T13:14:07;8.03;;;6.37;;
29940;SDS011;16801;53.562;10.038;2023-04-15T13:17:30;5.87;;;4.43;;
29940;SDS011;16801;53.562;10.038;2023-04-15T13:20:50;7.50;;;4.93;;
29940;SDS011;16801;53.562;10.038;2023-04-15T13:24:11;7.10;;;6.40;;
29940;SDS011;16801;53.562;10.038;2023-04-15T13:27:32;6.27;;;5.67;;
29940;SDS011;16801;53.562;10.038;2023-04-15T13:30:54;7.40;;;4.90;;
29940;SDS011;16801;53.562;10.038;2023-04-15T13:34:16;7.33;;;5.43;;
29940;SDS011;16801;53.562;10.038;2023-04-15T13:37:37;6.10;;;5.53;;
29940;SDS011;16801;53.562;10.038;2023-04-15T13:40:58;5.87;;;4.23;;
29940;SDS011;16801;53.562;10.038;2023-04-15T13:44:18;5.53;;;4.43;;
29940;SDS011;16801;53.562;10.038;2023-04-15T13:47:41;5.40;;;4.90;;
29940;SDS011;16801;53.562;10.038;2023-04-15T13:51:02;4.50;;;4.10;;
29940;SDS011;16801;53.562;10.038;2023-04-15T13:54:23;4.13;;;3.73;;
29940;SDS011;16801;53.562;10.038;2023-04-15T13:57:44;4.77;;;4.37;;
29940;SDS011;16801;53.562;10.038;2023-04-15T14:01:05;5.37;;;4.07;;
29940;SDS011;16801;53.562;10.038;2023-04-15T14:04:27;7.00;;;4.47;;
29940;SDS011;16801;53.562;10.038;2023-04-15T14:07:48;3.90;;;3.58;;
29940;SDS011;16801;53.562;10.038;2023-04-15T14:11:09;4.22;;;3.83;;
29940;SDS011;16801;53.562;10.038;2023-04-15T14:14:30;4.72;;;4.32;;
29940;SDS011;16801;53.562;10.038;2023-04-15T14:17:50;3.55;;;3.25;;
29940;SDS011;16801;53.562;10.038;2023-04-15T14:21:13;9.73;;;4.72;;
29940;SDS011;16801;53.562;10.038;2023-04-15T14:24:33;5.93;;;4.60;;
29940;SDS011;16801;53.562;10.038;2023-04-15T14:27:54;4.75;;;4.30;;
29940;SDS011;16801;53.562;10.038;2023-04-15T14:31:15;6.25;;;5.35;;
29940;SDS011;16801;53.562;10.038;2023-04-15T14:34:35;5.78;;;4.60;;
29940;SDS011;16801;53.562;10.038;2023-04-15T14:37:57;3.78;;;3.42;;
29940;SDS011;16801;53.562;10.038;2023-04-15T14:41:18;4.72;;;3.80;;
29940;SDS011;16801;53.562;10.038;2023-04-15T14:44:40;4.32;;;3.78;;
29940;SDS011;16801;53.562;10.038;2023-04-15T14:48:03;3.83;;;3.53;;
29940;SDS011;16801;53.562;10.038;2023-04-15T14:51:28;4.50;;;4.10;;
29940;SDS011;16801;53.562;10.038;2023-04-15T14:54:51;4.20;;;3.80;;
29940;SDS011;16801;53.562;10.038;2023-04-15T14:58:12;4.60;;;4.20;;
29940;SDS011;16801;53.562;10.038;2023-04-15T15:01:33;3.75;;;3.45;;
29940;SDS011;16801;53.562;10.038;2023-04-15T15:04:54;4.93;;;3.80;;
29940;SDS011;16801;53.562;10.038;2023-04-15T15:08:15;5.75;;;3.65;;
29940;SDS011;16801;53.562;10.038;2023-04-15T15:11:37;4.75;;;4.28;;
29940;SDS011;16801;53.562;10.038;2023-04-15T15:14:58;6.30;;;5.47;;
29940;SDS011;16801;53.562;10.038;2023-04-15T15:18:19;7.95;;;5.20;;
29940;SDS011;16801;53.562;10.038;2023-04-15T15:21:40;4.63;;;3.88;;
29940;SDS011;16801;53.562;10.038;2023-04-15T15:25:01;6.38;;;4.80;;
29940;SDS011;16801;53.562;10.038;2023-04-15T15:28:23;5.57;;;5.07;;
29940;SDS011;16801;53.562;10.038;2023-04-15T15:31:44;5.63;;;3.60;;
29940;SDS011;16801;53.562;10.038;2023-04-15T15:35:05;4.47;;;4.00;;
29940;SDS011;16801;53.562;10.038;2023-04-15T15:38:26;4.72;;;4.32;;
29940;SDS011;16801;53.562;10.038;2023-04-15T15:41:47;6.45;;;5.13;;
29940;SDS011;16801;53.562;10.038;2023-04-15T15:45:10;5.47;;;4.90;;
29940;SDS011;16801;53.562;10.038;2023-04-15T15:48:31;3.97;;;3.45;;
29940;SDS011;16801;53.562;10.038;2023-04-15T15:51:53;5.10;;;4.45;;
29940;SDS011;16801;53.562;10.038;2023-04-15T15:55:15;6.20;;;5.25;;
29940;SDS011;16801;53.562;10.038;2023-04-15T15:58:36;4.90;;;4.50;;
29940;SDS011;16801;53.562;10.038;2023-04-15T16:01:58;6.67;;;4.17;;
29940;SDS011;16801;53.562;10.038;2023-04-15T16:05:19;6.27;;;4.77;;
29940;SDS011;16801;53.562;10.038;2023-04-15T16:08:40;6.00;;;5.00;;
29940;SDS011;16801;53.562;10.038;2023-04-15T16:12:00;4.60;;;4.20;;
29940;SDS011;16801;53.562;10.038;2023-04-15T16:15:23;5.73;;;5.23;;
29940;SDS011;16801;53.562;10.038;2023-04-15T16:18:46;4.23;;;3.93;;
29940;SDS011;16801;53.562;10.038;2023-04-15T16:22:07;5.50;;;5.03;;
29940;SDS011;16801;53.562;10.038;2023-04-15T16:25:28;6.03;;;5.43;;
29940;SDS011;16801;53.562;10.038;2023-04-15T16:28:49;6.10;;;5.50;;
29940;SDS011;16801;53.562;10.038;2023-04-15T16:32:10;6.60;;;6.00;;
29940;SDS011;16801;53.562;10.038;2023-04-15T16:35:32;8.00;;;6.37;;
29940;SDS011;16801;53.562;10.038;2023-04-15T16:38:53;12.67;;;6.77;;
29940;SDS011;16801;53.562;10.038;2023-04-15T16:42:14;22.23;;;18.47;;
29940;SDS011;16801;53.562;10.038;2023-04-15T16:45:35;50.93;;;40.53;;
29940;SDS011;16801;53.562;10.038;2023-04-15T16:48:56;33.57;;;28.37;;
29940;SDS011;16801;53.562;10.038;2023-04-15T16:52:18;143.93;;;133.33;;
29940;SDS011;16801;53.562;10.038;2023-04-15T16:55:39;186.43;;;166.35;;
29940;SDS011;16801;53.562;10.038;2023-04-15T16:59:00;232.07;;;207.37;;
29940;SDS011;16801;53.562;10.038;2023-04-15T17:02:20;165.43;;;150.93;;
29940;SDS011;16801;53.562;10.038;2023-04-15T17:05:41;321.40;;;262.87;;
29940;SDS011;16801;53.562;10.038;2023-04-15T17:09:03;28.03;;;18.67;;
29940;SDS011;16801;53.562;10.038;2023-04-15T17:12:24;9.03;;;6.97;;
29940;SDS011;16801;53.562;10.038;2023-04-15T17:15:45;8.17;;;6.60;;
29940;SDS011;16801;53.562;10.038;2023-04-15T17:19:06;6.97;;;6.37;;
29940;SDS011;16801;53.562;10.038;2023-04-15T17:22:28;9.20;;;7.17;;
29940;SDS011;16801;53.562;10.038;2023-04-15T17:25:50;8.70;;;7.80;;
29940;SDS011;16801;53.562;10.038;2023-04-15T17:29:11;8.77;;;7.97;;
29940;SDS011;16801;53.562;10.038;2023-04-15T17:32:31;7.23;;;5.93;;
29940;SDS011;16801;53.562;10.038;2023-04-15T17:35:53;8.07;;;7.33;;
29940;SDS011;16801;53.562;10.038;2023-04-15T17:39:13;7.73;;;6.70;;
29940;SDS011;16801;53.562;10.038;2023-04-15T17:42:36;10.27;;;8.63;;
29940;SDS011;16801;53.562;10.038;2023-04-15T17:45:56;11.57;;;7.40;;
29940;SDS011;16801;53.562;10.038;2023-04-15T17:49:18;7.73;;;6.97;;
29940;SDS011;16801;53.562;10.038;2023-04-15T17:52:39;7.93;;;6.63;;
29940;SDS011;16801;53.562;10.038;2023-04-15T17:56:00;7.20;;;6.30;;
29940;SDS011;16801;53.562;10.038;2023-04-15T17:59:22;9.90;;;8.07;;
29940;SDS011;16801;53.562;10.038;2023-04-15T18:02:43;9.63;;;7.20;;
29940;SDS011;16801;53.562;10.038;2023-04-15T18:06:05;8.93;;;8.03;;
29940;SDS011;16801;53.562;10.038;2023-04-15T18:09:26;14.40;;;8.77;;
29940;SDS011;16801;53.562;10.038;2023-04-15T18:12:47;10.37;;;7.13;;
29940;SDS011;16801;53.562;10.038;2023-04-15T18:16:09;9.57;;;8.00;;
29940;SDS011;16801;53.562;10.038;2023-04-15T18:19:30;8.93;;;7.40;;
29940;SDS011;16801;53.562;10.038;2023-04-15T18:22:51;8.30;;;7.40;;
29940;SDS011;16801;53.562;10.038;2023-04-15T18:26:11;8.70;;;7.80;;
29940;SDS011;16801;53.562;10.038;2023-04-15T18:29:33;9.90;;;8.90;;
29940;SDS011;16801;53.562;10.038;2023-04-15T18:32:55;9.13;;;8.20;;
29940;SDS011;16801;53.562;10.038;2023-04-15T18:36:16;8.53;;;7.73;;
29940;SDS011;16801;53.562;10.038;2023-04-15T18:39:37;10.23;;;8.43;;
29940;SDS011;16801;53.562;10.038;2023-04-15T18:42:58;9.00;;;8.10;;
29940;SDS011;16801;53.562;10.038;2023-04-15T18:46:18;11.70;;;6.97;;
29940;SDS011;16801;53.562;10.038;2023-04-15T18:49:41;10.20;;;7.77;;
29940;SDS011;16801;53.562;10.038;2023-04-15T18:53:02;9.40;;;7.47;;
29940;SDS011;16801;53.562;10.038;2023-04-15T18:56:22;8.90;;;7.47;;
29940;SDS011;16801;53.562;10.038;2023-04-15T18:59:43;8.20;;;6.53;;
29940;SDS011;16801;53.562;10.038;2023-04-15T19:03:04;8.60;;;7.47;;
29940;SDS011;16801;53.562;10.038;2023-04-15T19:06:26;12.00;;;8.47;;
29940;SDS011;16801;53.562;10.038;2023-04-15T19:09:47;7.53;;;6.73;;
29940;SDS011;16801;53.562;10.038;2023-04-15T19:13:08;7.43;;;6.63;;
29940;SDS011;16801;53.562;10.038;2023-04-15T19:16:29;9.90;;;7.97;;
29940;SDS011;16801;53.562;10.038;2023-04-15T19:19:49;7.23;;;6.60;;
29940;SDS011;16801;53.562;10.038;2023-04-15T19:23:12;8.03;;;7.23;;
29940;SDS011;16801;53.562;10.038;2023-04-15T19:26:32;9.30;;;7.57;;
29940;SDS011;16801;53.562;10.038;2023-04-15T19:29:55;11.37;;;9.47;;
29940;SDS011;16801;53.562;10.038;2023-04-15T19:33:16;8.03;;;7.23;;
29940;SDS011;16801;53.562;10.038;2023-04-15T19:36:36;9.80;;;7.27;;
29940;SDS011;16801;53.562;10.038;2023-04-15T19:39:59;8.23;;;7.43;;
29940;SDS011;16801;53.562;10.038;2023-04-15T19:43:20;8.53;;;7.77;;
29940;SDS011;16801;53.562;10.038;2023-04-15T19:46:41;8.23;;;7.13;;